Time;durP1;ratioP1;P1;durP2;ratioP2;P2;SDS_P1;SDS_P2;PMS_P1;PMS_P2;Temp;Humidity;BMP_temperature;BMP_pressure;BME280_temperature;BME280_humidity;BME280_pressure;Samples;Min_cycle;Max_cycle;Signal;HPM_P1;HPM_P2
2021/11/08 00:01:45;;;;;;;;;11.50;8.75;;;;;10.41;68.55;101599.56;5058819;28;45619;-85
2021/11/08 00:04:11;;;;;;;;;11.75;10.25;;;;;10.01;68.57;101534.50;5056896;28;45613;-82
2021/11/08 00:06:37;;;;;;;;;12.75;11.25;;;;;10.41;68.50;101599.56;5062642;28;45721;-81
2021/11/08 00:09:05;;;;;;;;;11.00;8.25;;;;;10.35;68.70;101591.19;5061154;28;45640;-82
2021/11/08 00:11:32;;;;;;;;;11.75;10.50;;;;;10.04;68.38;101548.25;5061297;28;46764;-83
2021/11/08 00:13:58;;;;;;;;;13.25;10.75;;;;;10.30;68.79;101585.34;5044428;28;47155;-85
2021/11/08 00:21:45;;;;;;;;;10.25;8.25;;;;;10.14;69.28;101569.59;5055941;28;46495;-84
2021/11/08 00:24:13;;;;;;;;;9.25;8.00;;;;;10.24;69.00;101583.06;5048963;28;46729;-82
2021/11/08 00:26:38;;;;;;;;;12.00;8.50;;;;;10.24;69.15;101581.28;5061817;28;45779;-84
2021/11/08 00:29:04;;;;;;;;;13.50;8.25;;;;;10.09;69.48;101572.41;5054177;28;45794;-81
2021/11/08 00:31:30;;;;;;;;;14.00;11.00;;;;;10.19;69.34;101585.06;5054919;28;46545;-83
2021/11/08 00:33:55;;;;;;;;;8.00;8.00;;;;;9.94;69.65;101547.06;5054566;28;45760;-85
2021/11/08 00:36:21;;;;;;;;;13.25;11.25;;;;;9.89;69.67;101538.63;5052944;28;45860;-85
2021/11/08 00:38:46;;;;;;;;;12.00;9.50;;;;;9.65;69.49;101506.75;5053927;28;45664;-84
2021/11/08 00:41:12;;;;;;;;;11.50;10.00;;;;;9.76;69.53;101521.91;5054302;28;45997;-85
2021/11/08 00:43:37;;;;;;;;;13.50;11.00;;;;;9.81;69.42;101527.72;5054259;28;45660;-85
2021/11/08 00:46:03;;;;;;;;;10.25;10.00;;;;;10.16;69.50;101591.31;5053986;28;45589;-83
2021/11/08 00:48:32;;;;;;;;;12.75;10.75;;;;;9.71;69.45;101523.91;5068090;28;45861;-83
2021/11/08 00:50:58;;;;;;;;;13.00;10.75;;;;;10.15;69.52;101596.63;5033599;28;47745;-81
2021/11/08 00:53:24;;;;;;;;;15.50;10.50;;;;;10.01;69.58;101560.69;5054138;28;46199;-82
2021/11/08 00:55:51;;;;;;;;;11.50;10.00;;;;;10.10;69.59;101566.25;5057878;28;46028;-84
2021/11/08 00:58:31;;;;;;;;;12.75;10.00;;;;;9.88;69.44;101533.50;5054210;28;46004;-83
2021/11/08 01:01:03;;;;;;;;;15.00;13.00;;;;;10.17;69.45;101595.63;5058410;28;46377;-81
2021/11/08 01:03:31;;;;;;;;;15.50;13.25;;;;;10.17;69.68;101584.28;5058769;28;46001;-84
2021/11/08 01:05:57;;;;;;;;;16.25;12.50;;;;;10.18;69.35;101589.47;5052724;28;45607;-82
2021/11/08 01:08:22;;;;;;;;;14.50;11.00;;;;;10.21;69.29;101591.06;5054850;28;45735;-82
2021/11/08 01:10:48;;;;;;;;;14.00;11.00;;;;;10.12;69.42;101584.53;5049533;28;45734;-84
2021/11/08 01:13:14;;;;;;;;;19.00;15.25;;;;;10.13;69.38;101578.34;5053099;28;45971;-82
2021/11/08 01:15:39;;;;;;;;;12.25;10.50;;;;;10.19;69.46;101585.91;5056068;28;45739;-84
2021/11/08 01:18:05;;;;;;;;;11.25;8.75;;;;;10.13;69.64;101586.22;5052490;28;45926;-84
2021/11/08 01:20:35;;;;;;;;;11.50;11.25;;;;;10.04;69.43;101587.53;5052072;28;46381;-84
2021/11/08 01:23:03;;;;;;;;;15.50;12.00;;;;;9.68;69.36;101532.75;5057980;28;46129;-82
2021/11/08 01:25:30;;;;;;;;;15.25;11.25;;;;;9.87;69.75;101548.34;5046028;28;45960;-84
2021/11/08 01:27:58;;;;;;;;;12.00;10.75;;;;;9.90;69.68;101561.25;5062930;28;45610;-79
2021/11/08 01:30:25;;;;;;;;;15.50;10.50;;;;;9.94;69.70;101585.47;5066886;28;46271;-85
2021/11/08 01:33:04;;;;;;;;;12.75;11.00;;;;;9.71;70.07;101539.59;5054134;28;46234;-86
2021/11/08 01:35:58;;;;;;;;;16.75;11.00;;;;;9.89;69.88;101569.19;5057555;28;46732;-82
2021/11/08 01:38:25;;;;;;;;;11.25;10.25;;;;;9.93;69.97;101584.63;5068049;28;45743;-81
2021/11/08 01:40:52;;;;;;;;;11.25;10.25;;;;;9.92;69.98;101590.81;5059384;28;45735;-84
2021/11/08 01:43:18;;;;;;;;;11.50;10.75;;;;;9.93;70.44;101581.19;5060988;28;46200;-83
2021/11/08 01:45:44;;;;;;;;;8.50;7.50;;;;;9.75;70.12;101550.75;5068172;28;45930;-84
2021/11/08 01:48:11;;;;;;;;;12.00;11.00;;;;;9.67;70.12;101545.91;5064244;28;45775;-82
2021/11/08 01:50:37;;;;;;;;;11.75;8.25;;;;;9.89;70.43;101577.88;5060194;28;46746;-83
2021/11/08 01:53:04;;;;;;;;;12.25;8.50;;;;;9.88;70.20;101570.13;5056259;28;46140;-81
2021/11/08 01:55:30;;;;;;;;;11.00;10.00;;;;;9.72;70.33;101543.06;5049442;28;45799;-81
2021/11/08 01:57:56;;;;;;;;;11.00;10.00;;;;;9.45;70.36;101512.16;5047225;28;45785;-83
2021/11/08 02:00:23;;;;;;;;;13.00;12.75;;;;;9.49;70.48;101523.34;5061070;28;45778;-82
2021/11/08 02:02:49;;;;;;;;;9.75;8.75;;;;;9.81;70.52;101576.59;5053767;28;46233;-82
2021/11/08 02:05:15;;;;;;;;;10.50;9.50;;;;;9.67;70.52;101549.38;5039762;28;45861;-85
2021/11/08 02:07:42;;;;;;;;;12.25;10.50;;;;;9.80;70.29;101578.38;5055950;28;45728;-84
2021/11/08 02:10:10;;;;;;;;;12.50;9.75;;;;;9.78;70.49;101571.50;5056024;28;45717;-84
2021/11/08 02:12:36;;;;;;;;;11.00;10.75;;;;;9.67;70.62;101559.00;5058599;28;46125;-82
2021/11/08 02:15:06;;;;;;;;;12.25;9.00;;;;;9.76;70.70;101570.75;5067707;28;45942;-85
2021/11/08 02:17:33;;;;;;;;;7.25;6.00;;;;;9.68;70.78;101555.44;5057873;28;45986;-81
2021/11/08 02:20:17;;;;;;;;;11.00;10.00;;;;;9.62;70.68;101551.38;5054789;28;45768;-85
2021/11/08 02:22:44;;;;;;;;;12.25;8.00;;;;;9.62;71.07;101556.63;5054986;28;46357;-82
2021/11/08 02:25:12;;;;;;;;;12.00;11.00;;;;;9.72;70.89;101571.84;5031346;28;46340;-83
2021/11/08 02:27:41;;;;;;;;;15.25;10.50;;;;;9.61;70.82;101547.06;5056310;28;46064;-84
2021/11/08 02:30:06;;;;;;;;;13.25;11.00;;;;;9.60;70.56;101541.94;5069311;28;46167;-82
2021/11/08 02:32:33;;;;;;;;;10.50;7.75;;;;;9.67;70.61;101543.28;5055831;28;46322;-82
2021/11/08 02:35:05;;;;;;;;;12.50;9.75;;;;;9.73;70.69;101549.97;5058691;28;45912;-83
2021/11/08 02:37:31;;;;;;;;;11.50;11.00;;;;;9.82;70.53;101567.81;5062329;28;45747;-83
2021/11/08 02:39:57;;;;;;;;;13.00;11.00;;;;;9.69;70.50;101547.53;5065965;28;46497;-81
2021/11/08 02:42:22;;;;;;;;;13.00;12.50;;;;;9.76;70.41;101558.53;5045084;28;47326;-85
2021/11/08 02:44:48;;;;;;;;;16.00;12.00;;;;;9.63;70.50;101547.00;5063269;28;46181;-84
2021/11/08 02:47:14;;;;;;;;;10.25;7.25;;;;;9.52;70.66;101529.25;5055906;28;45721;-83
2021/11/08 02:49:44;;;;;;;;;17.75;12.75;;;;;9.69;70.63;101557.16;5054956;28;45763;-84
2021/11/08 02:52:10;;;;;;;;;12.75;10.00;;;;;9.65;70.34;101558.25;5038411;28;47565;-84
2021/11/08 02:54:41;;;;;;;;;12.50;9.75;;;;;9.43;70.75;101521.88;5041443;28;45752;-84
2021/11/08 02:57:07;;;;;;;;;13.25;10.25;;;;;9.39;70.69;101512.50;5066738;28;46025;-83
2021/11/08 02:59:35;;;;;;;;;16.50;11.25;;;;;9.60;70.56;101548.03;5055005;28;47160;-82
2021/11/08 03:02:01;;;;;;;;;14.50;11.00;;;;;9.57;70.49;101534.22;5056185;28;46162;-85
2021/11/08 03:04:30;;;;;;;;;12.00;11.50;;;;;9.70;70.59;101566.69;5068739;28;45794;-84
2021/11/08 03:06:56;;;;;;;;;12.25;8.50;;;;;9.60;70.55;101542.78;5073417;28;45476;-83
2021/11/08 03:09:30;;;;;;;;;9.75;9.50;;;;;9.73;70.48;101563.06;5070865;28;46499;-83
2021/11/08 03:11:57;;;;;;;;;10.50;8.50;;;;;9.45;70.39;101524.41;5068090;28;46330;-84
2021/11/08 03:14:26;;;;;;;;;10.50;8.50;;;;;9.67;70.34;101570.31;5061924;28;45719;-83
2021/11/08 03:17:02;;;;;;;;;7.50;7.50;;;;;9.48;70.58;101553.03;5066750;28;45713;-86
2021/11/08 03:19:36;;;;;;;;;14.00;9.75;;;;;9.46;70.55;101570.56;5058145;28;45780;-85
2021/11/08 03:22:10;;;;;;;;;10.75;7.50;;;;;9.34;70.70;101571.19;5057984;28;46410;-83
2021/11/08 03:27:48;;;;;;;;;11.75;8.50;;;;;9.20;71.30;101577.09;5065100;28;45727;-82
2021/11/08 03:30:27;;;;;;;;;15.00;11.00;;;;;9.09;71.55;101555.88;5053942;28;46100;-85
2021/11/08 03:32:56;;;;;;;;;13.75;11.50;;;;;9.19;71.19;101573.63;5043909;28;47246;-86
2021/11/08 03:35:24;;;;;;;;;11.50;9.00;;;;;9.24;71.51;101586.47;5063259;28;46016;-85
2021/11/08 03:37:51;;;;;;;;;14.00;11.00;;;;;9.25;71.26;101582.94;5050626;28;45645;-81
2021/11/08 03:40:27;;;;;;;;;10.50;9.75;;;;;9.17;71.36;101565.06;5060565;28;46418;-85
2021/11/08 03:42:54;;;;;;;;;11.00;10.50;;;;;9.14;71.09;101566.94;5066077;28;45897;-83
2021/11/08 03:45:20;;;;;;;;;11.75;10.25;;;;;8.93;71.33;101537.50;5062902;28;45522;-85
2021/11/08 03:47:46;;;;;;;;;8.00;7.50;;;;;9.03;71.43;101551.81;5062611;28;45740;-86
2021/11/08 03:50:12;;;;;;;;;7.00;6.00;;;;;9.14;71.47;101573.03;5057795;28;46163;-84
2021/11/08 03:52:39;;;;;;;;;15.25;10.75;;;;;9.07;71.26;101563.78;5039308;28;46108;-84
2021/11/08 03:55:10;;;;;;;;;10.50;7.25;;;;;9.04;71.79;101563.94;5055247;28;45822;-82
2021/11/08 03:57:36;;;;;;;;;10.00;8.00;;;;;9.02;71.76;101568.41;5056167;28;45719;-82
2021/11/08 04:00:05;;;;;;;;;14.00;11.00;;;;;9.01;71.80;101564.13;5054067;28;45957;-84
2021/11/08 04:02:30;;;;;;;;;10.25;9.75;;;;;8.78;72.23;101518.19;5064706;28;47172;-84
2021/11/08 04:04:56;;;;;;;;;11.00;10.00;;;;;9.04;71.85;101569.19;5044198;28;45858;-82
2021/11/08 04:07:21;;;;;;;;;10.25;9.75;;;;;9.03;71.98;101562.25;5053383;28;45604;-83
2021/11/08 04:09:47;;;;;;;;;14.25;11.00;;;;;8.83;71.99;101521.44;5063122;28;46286;-83
2021/11/08 04:12:12;;;;;;;;;15.25;11.00;;;;;8.95;71.57;101556.56;5059525;28;45825;-82
2021/11/08 04:14:39;;;;;;;;;12.50;9.50;;;;;8.79;72.05;101529.50;5062192;28;45597;-83
2021/11/08 04:17:05;;;;;;;;;12.50;10.50;;;;;8.84;72.04;101545.78;5061581;28;45725;-83
2021/11/08 04:19:32;;;;;;;;;12.75;10.00;;;;;8.97;71.98;101580.00;5042054;28;48456;-83
2021/11/08 04:22:01;;;;;;;;;11.00;10.50;;;;;8.97;72.05;101572.16;5065332;28;46190;-84
2021/11/08 04:24:28;;;;;;;;;11.00;11.00;;;;;8.87;72.29;101552.63;5054659;28;45876;-84
2021/11/08 04:26:54;;;;;;;;;11.25;9.75;;;;;8.99;72.13;101571.19;5054509;28;45836;-84
2021/11/08 04:29:20;;;;;;;;;12.00;10.75;;;;;8.92;72.03;101550.63;5054980;28;45677;-84
2021/11/08 04:31:46;;;;;;;;;11.00;10.25;;;;;8.90;72.20;101549.88;5054633;28;46141;-84
2021/11/08 04:47:56;;;;;;;;;15.50;11.50;;;;;8.70;72.24;101576.94;4976630;28;45374;-83
2021/11/08 05:30:59;;;;;;;;;11.00;9.75;;;;;9.01;71.35;101550.19;4955592;28;45643;-81
2021/11/08 05:33:24;;;;;;;;;11.25;9.50;;;;;9.19;71.81;101578.03;4955971;28;46444;-82
2021/11/08 05:35:56;;;;;;;;;11.25;10.25;;;;;9.23;71.35;101582.19;4931070;28;47440;-80
2021/11/08 05:38:22;;;;;;;;;11.00;10.00;;;;;9.18;71.52;101589.41;4941758;28;46249;-82
2021/11/08 05:40:47;;;;;;;;;9.50;9.50;;;;;9.05;71.41;101563.03;4955123;28;46312;-83
2021/11/08 05:43:13;;;;;;;;;11.25;10.25;;;;;9.22;71.45;101590.97;4949230;28;45750;-80
2021/11/08 05:45:51;;;;;;;;;9.00;8.75;;;;;9.13;71.46;101575.72;4958222;28;45950;-79
2021/11/08 05:48:37;;;;;;;;;11.00;9.50;;;;;8.98;71.18;101558.16;4955253;28;46146;-79
2021/11/08 05:51:03;;;;;;;;;14.25;11.00;;;;;9.26;71.33;101598.56;4954071;28;45719;-84
2021/11/08 05:53:29;;;;;;;;;12.00;9.50;;;;;9.21;71.44;101589.25;4958949;28;45670;-83
2021/11/08 05:56:13;;;;;;;;;10.25;9.00;;;;;9.26;71.37;101601.19;4987620;28;46039;-83
2021/11/08 06:50:01;;;;;;;;;10.00;9.00;;;;;8.99;71.54;101609.53;5059466;28;46238;-81
2021/11/08 06:52:30;;;;;;;;;10.25;9.75;;;;;9.09;71.52;101634.28;5055009;28;45890;-79
2021/11/08 06:55:00;;;;;;;;;16.00;13.25;;;;;9.18;71.28;101658.22;5061379;28;45874;-81
2021/11/08 06:57:47;;;;;;;;;11.00;11.00;;;;;9.13;71.74;101652.38;5050941;28;46834;-80
2021/11/08 07:00:20;;;;;;;;;14.00;12.00;;;;;9.06;71.66;101635.31;5061238;28;46353;-80
2021/11/08 07:02:45;;;;;;;;;12.50;11.50;;;;;9.17;71.51;101653.09;5063151;28;45688;-80
2021/11/08 07:05:11;;;;;;;;;16.50;12.50;;;;;9.15;71.64;101658.38;5056173;28;45747;-84
2021/11/08 07:07:37;;;;;;;;;11.50;10.25;;;;;9.18;71.98;101659.97;5061618;28;46317;-82
2021/11/08 07:10:04;;;;;;;;;14.25;10.50;;;;;9.17;71.61;101668.78;5055013;28;46067;-82
2021/11/08 07:12:30;;;;;;;;;13.75;11.50;;;;;9.01;71.75;101642.53;5055885;28;45635;-81
2021/11/08 07:14:55;;;;;;;;;13.25;11.00;;;;;9.18;71.74;101671.28;5056826;28;46994;-81
2021/11/08 07:17:21;;;;;;;;;11.75;11.75;;;;;9.22;71.86;101675.47;5053061;28;45670;-81
2021/11/08 07:19:46;;;;;;;;;12.50;11.00;;;;;9.25;71.43;101677.94;5052556;28;46050;-79
2021/11/08 07:22:12;;;;;;;;;14.00;10.50;;;;;9.25;71.61;101666.63;5053437;28;45757;-81
2021/11/08 07:24:38;;;;;;;;;11.00;9.00;;;;;9.11;71.60;101637.69;5035964;28;45819;-80
2021/11/08 07:27:03;;;;;;;;;12.00;10.50;;;;;9.21;71.51;101657.25;5057359;28;45745;-81
2021/11/08 07:29:29;;;;;;;;;11.25;10.25;;;;;9.33;71.64;101674.09;5054039;28;45799;-81
2021/11/08 07:31:57;;;;;;;;;10.25;9.75;;;;;9.33;71.57;101674.09;5054023;28;45843;-80
2021/11/08 07:34:22;;;;;;;;;13.25;9.00;;;;;9.37;71.62;101681.72;5063134;28;46260;-80
2021/11/08 07:36:48;;;;;;;;;11.00;10.00;;;;;9.16;71.39;101641.78;5053172;28;46351;-78
2021/11/08 07:39:14;;;;;;;;;16.00;12.00;;;;;9.39;71.13;101682.50;5053575;28;46190;-80
2021/11/08 07:41:39;;;;;;;;;9.00;9.00;;;;;9.18;71.53;101655.59;5052519;28;45827;-80
2021/11/08 07:44:05;;;;;;;;;14.25;12.00;;;;;9.17;71.02;101653.94;5054564;28;45744;-81
2021/11/08 07:46:30;;;;;;;;;16.00;12.75;;;;;9.35;71.24;101693.16;5054947;28;45967;-80
2021/11/08 07:48:56;;;;;;;;;10.75;8.00;;;;;9.33;71.55;101689.78;5060316;28;45680;-80
2021/11/08 07:51:22;;;;;;;;;14.50;14.00;;;;;9.37;71.53;101697.41;5060552;28;45451;-81
2021/11/08 07:53:48;;;;;;;;;12.50;11.25;;;;;9.42;71.34;101690.19;5067785;28;45686;-79
2021/11/08 07:56:14;;;;;;;;;14.50;13.00;;;;;9.38;71.28;101678.19;5056807;28;45599;-79
2021/11/08 07:58:40;;;;;;;;;15.75;13.50;;;;;9.49;71.06;101695.97;5052107;28;45744;-80
2021/11/08 08:01:07;;;;;;;;;18.75;14.25;;;;;9.52;71.18;101698.41;5036228;28;46237;-78
2021/11/08 08:03:32;;;;;;;;;15.25;11.25;;;;;9.38;70.97;101677.34;5036461;28;45684;-78
2021/11/08 08:06:00;;;;;;;;;15.00;13.00;;;;;9.54;70.96;101694.81;5056521;28;45836;-79
2021/11/08 08:08:26;;;;;;;;;15.25;14.00;;;;;9.61;70.82;101703.19;5035462;28;48638;-83
2021/11/08 08:10:53;;;;;;;;;14.25;12.00;;;;;9.58;70.91;101700.75;5053118;28;46053;-80
2021/11/08 08:13:24;;;;;;;;;15.25;14.00;;;;;9.63;70.73;101717.06;5054412;28;45780;-81
2021/11/08 08:15:51;;;;;;;;;12.50;11.75;;;;;9.62;70.86;101712.75;5052734;28;46898;-79
2021/11/08 08:18:16;;;;;;;;;17.00;12.50;;;;;9.52;70.73;101696.66;5053413;28;46503;-81
2021/11/08 08:20:42;;;;;;;;;16.75;13.50;;;;;9.63;70.75;101715.28;5053276;28;45790;-80
2021/11/08 08:23:08;;;;;;;;;15.00;13.25;;;;;9.63;70.84;101714.44;5053190;28;45697;-80
2021/11/08 08:25:33;;;;;;;;;15.75;14.25;;;;;9.60;70.81;101701.53;5052961;28;45885;-78
2021/11/08 08:27:59;;;;;;;;;12.50;11.25;;;;;9.60;70.89;101696.28;5053158;28;45566;-80
2021/11/08 08:30:26;;;;;;;;;12.50;12.00;;;;;9.54;70.58;101683.50;5052406;28;45854;-81
2021/11/08 08:32:53;;;;;;;;;13.00;11.50;;;;;9.75;70.45;101715.59;5050396;28;45684;-80
2021/11/08 08:35:19;;;;;;;;;18.75;12.75;;;;;9.76;70.24;101719.91;5052967;28;46527;-80
2021/11/08 08:37:45;;;;;;;;;12.25;12.00;;;;;9.78;70.37;101718.91;5052599;28;46084;-80
2021/11/08 08:40:11;;;;;;;;;13.00;12.00;;;;;9.79;70.45;101718.00;5052273;28;45997;-78
2021/11/08 08:42:37;;;;;;;;;15.75;14.75;;;;;9.86;70.16;101724.63;5047232;28;45885;-81
2021/11/08 08:45:04;;;;;;;;;14.25;11.50;;;;;9.82;70.17;101711.78;5066759;28;47396;-82
2021/11/08 08:47:29;;;;;;;;;12.00;12.00;;;;;9.94;70.01;101718.97;5052774;28;46280;-81
2021/11/08 08:49:55;;;;;;;;;14.25;9.25;;;;;9.92;69.93;101706.00;5045325;28;45825;-81
2021/11/08 08:52:21;;;;;;;;;12.00;11.00;;;;;9.86;69.98;101697.59;5055185;28;45755;-82
2021/11/08 08:54:47;;;;;;;;;13.25;11.00;;;;;10.09;69.63;101720.84;5052530;28;45681;-77
2021/11/08 08:57:12;;;;;;;;;16.00;12.00;;;;;10.18;69.64;101730.88;5052410;28;45803;-79
2021/11/08 08:59:39;;;;;;;;;13.00;11.75;;;;;10.17;69.41;101710.84;5052287;28;45768;-77
2021/11/08 09:02:05;;;;;;;;;15.00;12.00;;;;;10.35;69.69;101732.63;5057609;28;45602;-79
2021/11/08 09:04:31;;;;;;;;;13.50;9.25;;;;;10.38;69.31;101733.28;5055226;28;46595;-81
2021/11/08 09:06:57;;;;;;;;;14.75;11.50;;;;;10.36;69.33;101722.06;5050768;28;46091;-78
2021/11/08 09:09:23;;;;;;;;;13.50;11.50;;;;;10.47;69.06;101729.38;5049451;28;45586;-80
2021/11/08 09:11:49;;;;;;;;;11.75;10.25;;;;;10.46;68.78;101725.91;5064562;28;45766;-79
2021/11/08 09:14:15;;;;;;;;;15.75;12.00;;;;;10.53;68.65;101734.25;5055470;28;45728;-78
2021/11/08 09:16:40;;;;;;;;;12.75;11.75;;;;;10.51;68.47;101731.75;5053775;28;46254;-79
2021/11/08 09:19:06;;;;;;;;;13.50;12.25;;;;;10.47;68.45;101732.81;5057674;28;45703;-79
2021/11/08 09:21:33;;;;;;;;;12.75;12.50;;;;;10.46;68.50;101722.44;5059465;28;45681;-82
2021/11/08 09:24:00;;;;;;;;;15.00;12.00;;;;;10.46;68.28;101722.44;5059260;28;45909;-83
2021/11/08 09:26:29;;;;;;;;;17.25;14.00;;;;;10.46;68.42;101720.66;5058997;28;47203;-79
2021/11/08 09:28:55;;;;;;;;;17.00;14.00;;;;;10.56;68.34;101731.50;5058847;28;45756;-79
2021/11/08 09:31:21;;;;;;;;;17.50;13.25;;;;;10.55;68.13;101732.41;5056348;28;46203;-77
2021/11/08 09:33:48;;;;;;;;;11.50;11.00;;;;;10.53;68.15;101727.25;5058100;28;47551;-78
2021/11/08 09:36:14;;;;;;;;;14.00;10.75;;;;;10.57;67.79;101734.97;5053294;28;46267;-77
2021/11/08 09:38:50;;;;;;;;;12.00;8.00;;;;;10.60;67.53;101724.31;5033985;28;45669;-78
2021/11/08 09:41:18;;;;;;;;;14.00;11.00;;;;;10.58;67.19;101732.25;5043368;28;45629;-77
2021/11/08 09:43:45;;;;;;;;;12.00;10.75;;;;;10.50;67.46;101710.84;5060326;28;46381;-78
2021/11/08 09:46:12;;;;;;;;;12.00;10.25;;;;;10.67;67.87;101739.63;5051975;28;45976;-78
2021/11/08 09:48:40;;;;;;;;;11.00;8.75;;;;;10.73;67.28;101739.31;5051760;28;45692;-79
2021/11/08 09:51:14;;;;;;;;;10.25;8.00;;;;;10.73;67.09;101738.47;5052151;28;45698;-79
2021/11/08 09:53:42;;;;;;;;;11.50;8.75;;;;;10.80;67.18;101738.03;5039732;28;46516;-80
2021/11/08 09:56:09;;;;;;;;;14.00;8.75;;;;;10.88;66.79;101729.75;5043730;28;47122;-79
2021/11/08 09:58:34;;;;;;;;;9.50;7.00;;;;;10.93;66.50;101730.34;5051434;28;46043;-77
2021/11/08 10:01:08;;;;;;;;;12.00;8.75;;;;;10.97;66.20;101724.00;5051940;28;46099;-76
2021/11/08 10:03:33;;;;;;;;;7.25;6.75;;;;;11.01;66.10;101724.72;5051548;28;46325;-76
2021/11/08 10:06:01;;;;;;;;;9.50;8.25;;;;;11.05;65.96;101726.22;5054200;28;45539;-77
2021/11/08 10:08:30;;;;;;;;;10.25;9.00;;;;;11.10;65.75;101732.91;5053749;28;45699;-77
2021/11/08 10:10:58;;;;;;;;;11.25;8.25;;;;;11.15;65.72;101727.41;5051464;28;45817;-77
2021/11/08 10:13:26;;;;;;;;;13.00;8.00;;;;;11.21;65.55;101724.44;5056974;28;46473;-78
2021/11/08 10:15:57;;;;;;;;;12.25;8.00;;;;;11.21;65.75;101714.78;5044045;28;46166;-76
2021/11/08 10:18:24;;;;;;;;;12.25;7.75;;;;;11.33;65.26;101722.00;5050769;28;46317;-77
2021/11/08 10:20:53;;;;;;;;;11.50;8.75;;;;;11.39;65.10;101722.56;5051370;28;45810;-78
2021/11/08 10:23:23;;;;;;;;;9.50;8.50;;;;;11.46;64.94;101716.88;5050920;28;45656;-77
2021/11/08 10:25:50;;;;;;;;;9.50;4.00;;;;;11.50;64.25;101721.00;5037336;28;45543;-78
2021/11/08 10:28:20;;;;;;;;;7.00;5.00;;;;;11.52;63.92;101721.78;5050626;28;45705;-78
2021/11/08 10:30:54;;;;;;;;;6.00;3.25;;;;;11.55;64.02;101713.72;5050143;28;45583;-77
2021/11/08 10:33:30;;;;;;;;;10.00;7.25;;;;;11.66;63.59;101713.13;5047652;28;46942;-78
2021/11/08 10:36:01;;;;;;;;;11.75;6.75;;;;;11.78;63.38;101729.03;5051212;28;46451;-79
2021/11/08 10:38:30;;;;;;;;;6.75;4.00;;;;;11.85;62.66;101729.50;5053772;28;45703;-79
2021/11/08 10:41:06;;;;;;;;;7.00;5.50;;;;;11.85;62.41;101718.16;5050298;28;45595;-79
2021/11/08 10:43:35;;;;;;;;;8.00;5.50;;;;;11.95;62.32;101724.56;5055974;28;47280;-78
2021/11/08 10:46:06;;;;;;;;;6.50;4.00;;;;;11.95;61.90;101712.28;5053887;28;46481;-77
2021/11/08 10:48:36;;;;;;;;;4.00;3.00;;;;;12.01;61.76;101716.31;5051510;28;45953;-78
2021/11/08 10:51:04;;;;;;;;;6.50;4.50;;;;;12.05;60.96;101717.81;5047170;28;45677;-77
2021/11/08 10:53:44;;;;;;;;;7.00;6.00;;;;;11.93;60.90;101703.63;5054749;28;45664;-76
2021/11/08 10:56:11;;;;;;;;;7.75;4.25;;;;;12.05;60.67;101705.53;5054122;28;46569;-78
2021/11/08 10:58:43;;;;;;;;;6.00;5.50;;;;;12.11;60.70;101699.06;5054309;28;45668;-78
2021/11/08 11:01:19;;;;;;;;;3.75;3.50;;;;;12.18;60.84;101709.13;5054697;28;45570;-77
2021/11/08 11:03:52;;;;;;;;;4.50;2.00;;;;;12.23;60.15;101706.22;5060422;28;46378;-77
2021/11/08 11:06:19;;;;;;;;;6.00;3.00;;;;;12.29;59.96;101708.50;5054940;28;46059;-79
2021/11/08 11:08:50;;;;;;;;;2.75;2.00;;;;;12.31;59.22;101706.59;5060335;28;45566;-76
2021/11/08 11:11:23;;;;;;;;;4.75;3.00;;;;;12.32;59.48;101712.69;5061043;28;45720;-75
2021/11/08 11:13:53;;;;;;;;;4.50;3.75;;;;;12.34;59.42;101711.69;5073975;28;46912;-79
2021/11/08 11:16:38;;;;;;;;;3.00;3.00;;;;;12.39;59.62;101708.78;5060557;28;45519;-77
2021/11/08 11:19:09;;;;;;;;;5.00;2.75;;;;;12.41;59.16;101712.16;5064092;28;45614;-78
2021/11/08 11:21:38;;;;;;;;;4.25;3.50;;;;;12.43;58.98;101720.78;5060791;28;45629;-78
2021/11/08 11:24:06;;;;;;;;;2.75;2.50;;;;;12.44;59.13;101706.69;5051091;28;46772;-78
2021/11/08 11:26:49;;;;;;;;;2.75;2.00;;;;;12.50;58.59;101706.34;5061208;28;46587;-77
2021/11/08 11:29:26;;;;;;;;;4.25;2.75;;;;;12.53;58.27;101711.38;5067247;28;45947;-78
2021/11/08 11:31:51;;;;;;;;;3.00;1.50;;;;;12.51;57.73;101702.78;5063875;28;45811;-78
2021/11/08 11:34:17;;;;;;;;;3.00;2.50;;;;;12.53;58.30;101693.84;5060546;28;46459;-77
2021/11/08 11:36:43;;;;;;;;;3.00;1.50;;;;;12.58;57.81;101699.66;5059307;28;45720;-77
2021/11/08 11:39:16;;;;;;;;;3.00;2.75;;;;;12.58;57.88;101683.88;5065607;28;45808;-79
2021/11/08 11:41:46;;;;;;;;;4.00;3.00;;;;;12.64;57.67;101690.53;5050958;28;45346;-77
2021/11/08 11:44:21;;;;;;;;;5.50;3.50;;;;;12.66;57.80;101685.19;5053707;28;45987;-77
2021/11/08 11:46:53;;;;;;;;;2.00;2.00;;;;;12.63;57.56;101678.34;5052625;28;46407;-78
2021/11/08 11:49:19;;;;;;;;;3.50;3.25;;;;;12.69;57.45;101690.25;5053432;28;45995;-78
2021/11/08 11:51:50;;;;;;;;;1.75;1.25;;;;;12.59;56.81;101672.44;5053879;28;45880;-78
2021/11/08 11:54:19;;;;;;;;;2.00;1.00;;;;;12.69;56.85;101672.69;5054380;28;46064;-79
2021/11/08 11:56:47;;;;;;;;;2.00;1.50;;;;;12.63;56.48;101668.66;5048631;28;46081;-78
2021/11/08 11:59:14;;;;;;;;;2.00;2.00;;;;;12.71;55.94;101673.44;5046346;28;45866;-79
2021/11/08 12:01:41;;;;;;;;;2.00;1.25;;;;;12.72;56.14;101669.88;5053789;28;45539;-79
2021/11/08 12:04:08;;;;;;;;;2.00;1.75;;;;;12.72;56.08;101658.50;5053856;28;45759;-79
2021/11/08 12:06:38;;;;;;;;;1.00;1.00;;;;;12.66;56.08;101651.84;5040484;28;46165;-78
2021/11/08 12:09:07;;;;;;;;;3.50;2.50;;;;;12.87;55.92;101673.31;5053101;28;45554;-79
2021/11/08 12:11:47;;;;;;;;;4.00;3.00;;;;;12.89;55.75;101656.50;5053705;28;45784;-79
2021/11/08 12:14:19;;;;;;;;;1.25;1.25;;;;;12.94;55.60;101669.38;5047837;28;47234;-77
2021/11/08 12:17:02;;;;;;;;;4.00;3.00;;;;;12.98;54.99;101663.81;5052957;28;46547;-77
2021/11/08 12:19:39;;;;;;;;;1.00;1.00;;;;;13.03;54.97;101666.13;5052606;28;45500;-79
2021/11/08 12:22:31;;;;;;;;;1.50;1.50;;;;;13.00;54.80;101661.09;5053037;28;45586;-78
2021/11/08 12:25:01;;;;;;;;;1.75;1.00;;;;;13.04;54.69;101658.16;5048377;28;46600;-77
2021/11/08 12:27:54;;;;;;;;;3.75;3.00;;;;;13.06;54.36;101649.31;5052540;28;46099;-77
2021/11/08 12:30:26;;;;;;;;;1.00;1.00;;;;;13.06;54.80;101644.91;5044344;28;45873;-77
2021/11/08 12:32:55;;;;;;;;;5.25;2.25;;;;;13.06;54.59;101644.06;5042485;28;45768;-78
2021/11/08 12:35:35;;;;;;;;;2.50;2.00;;;;;13.06;54.92;101646.69;5052195;28;46580;-78
2021/11/08 12:38:14;;;;;;;;;4.50;3.00;;;;;13.12;54.51;101635.81;5052340;28;46042;-77
2021/11/08 12:40:41;;;;;;;;;5.00;4.00;;;;;13.15;54.47;101649.59;5040142;28;45980;-77
2021/11/08 12:43:06;;;;;;;;;4.25;3.00;;;;;13.17;54.76;101641.63;5051160;28;46020;-78
2021/11/08 12:45:38;;;;;;;;;3.25;3.00;;;;;13.19;55.16;101637.06;5052768;28;46047;-78
2021/11/08 12:48:07;;;;;;;;;4.25;3.00;;;;;13.23;55.02;101628.88;5051986;28;46144;-77
2021/11/08 12:50:39;;;;;;;;;3.75;3.00;;;;;13.27;55.00;101626.91;5057330;28;45728;-77
2021/11/08 12:53:05;;;;;;;;;4.00;3.00;;;;;13.34;55.00;101628.16;5055230;28;45680;-77
2021/11/08 12:55:41;;;;;;;;;4.25;3.00;;;;;13.37;54.70;101620.94;5067732;28;47077;-78
2021/11/08 12:58:07;;;;;;;;;4.00;2.00;;;;;13.36;54.67;101621.88;5059448;28;46329;-78
2021/11/08 13:00:39;;;;;;;;;4.00;3.00;;;;;13.41;54.71;101619.78;5056775;28;45747;-78
2021/11/08 13:03:12;;;;;;;;;5.25;3.50;;;;;13.38;54.16;101617.34;5053244;28;45994;-77
2021/11/08 13:05:45;;;;;;;;;3.00;3.00;;;;;13.48;54.49;101614.09;5051615;28;46026;-78
2021/11/08 13:08:27;;;;;;;;;3.00;3.00;;;;;13.54;54.12;101616.31;5054250;28;46186;-77
2021/11/08 13:10:55;;;;;;;;;5.00;3.50;;;;;13.58;54.15;101613.38;5055570;28;45739;-78
2021/11/08 13:13:21;;;;;;;;;5.75;3.25;;;;;13.62;53.58;101620.13;5054099;28;46475;-77
2021/11/08 13:15:46;;;;;;;;;4.00;4.00;;;;;13.64;53.67;101612.13;5055447;28;46394;-77
2021/11/08 13:18:12;;;;;;;;;3.00;3.00;;;;;13.61;53.79;101607.88;5061753;28;46098;-80
2021/11/08 13:20:42;;;;;;;;;5.75;5.00;;;;;13.67;53.08;101596.94;5054575;28;45720;-77